Aviation Digital Data Service (ADDS)

Output produced by TAFs form (1604 UTC 22 May 2015)
found at http://aviationweather.gov/adds/tafs/
 
KHOB 221311Z 2213/2312 04004KT 5SM BR OVC003 
     TEMPO 2213/2217 6SM BR BKN012 
     FM221700 13013KT P6SM OVC012 
     FM222100 13014KT P6SM BKN025 
     FM230100 12015KT P6SM BKN050 OVC250 
     PROB30 2306/2312 TSRA BKN030CB